Time;durP1;ratioP1;P1;durP2;ratioP2;P2;SDS_P1;SDS_P2;PMS_P1;PMS_P2;Temp;Humidity;BMP_temperature;BMP_pressure;BME280_temperature;BME280_humidity;BME280_pressure;Samples;Min_cycle;Max_cycle;Signal;HPM_P1;HPM_P2
2022/05/10 00:01:13;;;;;;;18.90;7.47;;;14.50;66.20;;;;;;5092246;28;20087;-68
2022/05/10 00:03:39;;;;;;;14.70;8.00;;;14.60;66.20;;;;;;5092154;28;20047;-69
2022/05/10 00:06:05;;;;;;;11.88;7.15;;;14.60;66.30;;;;;;5092119;28;20435;-69
2022/05/10 00:08:31;;;;;;;15.52;8.60;;;14.50;66.40;;;;;;5091509;28;20150;-69
2022/05/10 00:10:57;;;;;;;14.23;7.93;;;14.50;66.50;;;;;;5090973;28;20048;-69
2022/05/10 00:13:26;;;;;;;17.17;8.70;;;14.50;66.40;;;;;;5091809;28;20044;-69
2022/05/10 00:15:53;;;;;;;14.15;8.85;;;14.50;66.50;;;;;;5091745;28;20055;-70
2022/05/10 00:18:22;;;;;;;19.67;8.55;;;14.50;66.40;;;;;;5091446;28;20134;-69
2022/05/10 00:20:48;;;;;;;19.15;8.65;;;14.50;66.40;;;;;;5090607;28;20051;-67
2022/05/10 00:23:14;;;;;;;15.05;8.93;;;14.50;66.50;;;;;;5091690;28;20036;-68
2022/05/10 00:25:41;;;;;;;16.40;8.77;;;14.50;66.50;;;;;;5090335;28;20044;-68
2022/05/10 00:28:07;;;;;;;22.75;10.35;;;14.40;66.60;;;;;;5091358;28;20451;-68
2022/05/10 00:30:33;;;;;;;14.68;8.63;;;14.40;66.70;;;;;;5091307;28;20036;-68
2022/05/10 00:32:58;;;;;;;14.65;9.05;;;14.40;66.80;;;;;;5091625;28;20036;-68
2022/05/10 00:35:28;;;;;;;18.98;10.25;;;14.30;66.80;;;;;;5091499;28;20052;-68
2022/05/10 00:37:57;;;;;;;19.23;8.90;;;14.30;66.90;;;;;;5091125;28;20135;-68
2022/05/10 00:40:28;;;;;;;19.55;9.20;;;14.30;67.10;;;;;;5091419;28;20048;-69
2022/05/10 00:43:09;;;;;;;14.30;8.90;;;14.30;67.20;;;;;;5091462;28;20047;-69
2022/05/10 00:46:02;;;;;;;16.55;9.48;;;14.30;67.30;;;;;;5090860;28;20117;-68
2022/05/10 00:48:28;;;;;;;14.57;10.40;;;14.30;67.50;;;;;;5091302;28;20056;-68
2022/05/10 00:51:12;;;;;;;19.05;8.93;;;14.20;67.60;;;;;;5090920;28;20044;-69
2022/05/10 00:53:50;;;;;;;20.92;9.00;;;14.20;67.70;;;;;;5091205;28;20051;-69
2022/05/10 00:56:47;;;;;;;15.93;9.07;;;14.20;67.80;;;;;;5091140;28;20040;-69
2022/05/10 00:59:26;;;;;;;21.38;9.93;;;14.30;67.60;;;;;;5090032;28;20066;-69
2022/05/10 01:01:59;;;;;;;19.38;9.38;;;14.20;67.70;;;;;;5090923;28;20040;-69
2022/05/10 01:04:35;;;;;;;19.05;9.40;;;14.20;67.70;;;;;;5090907;28;20451;-69
2022/05/10 01:07:14;;;;;;;15.90;9.20;;;14.20;67.60;;;;;;5090692;28;20040;-69
2022/05/10 01:09:46;;;;;;;15.13;9.18;;;14.30;67.60;;;;;;5090811;28;20122;-69
2022/05/10 01:12:32;;;;;;;15.35;8.55;;;14.30;67.60;;;;;;5090803;28;20556;-69
2022/05/10 01:15:05;;;;;;;16.25;9.13;;;14.30;67.90;;;;;;5090842;28;20048;-69
2022/05/10 01:17:31;;;;;;;20.80;9.55;;;14.30;67.90;;;;;;5090646;28;20071;-69
2022/05/10 01:19:56;;;;;;;16.50;8.63;;;14.30;67.80;;;;;;5090725;28;20095;-69
2022/05/10 01:22:37;;;;;;;15.63;8.57;;;14.30;67.70;;;;;;5089954;28;20044;-69
2022/05/10 01:25:05;;;;;;;18.80;9.70;;;14.40;67.60;;;;;;5090675;28;20044;-69
2022/05/10 01:28:10;;;;;;;19.52;10.10;;;14.30;67.50;;;;;;5090576;28;20044;-69
2022/05/10 01:30:37;;;;;;;14.82;8.93;;;14.30;67.10;;;;;;5090189;28;20070;-69
2022/05/10 01:36:17;;;;;;;18.50;9.13;;;14.30;67.30;;;;;;5090316;28;20056;-69
2022/05/10 01:38:56;;;;;;;15.85;9.02;;;14.30;67.20;;;;;;5090253;28;20493;-69
2022/05/10 01:41:24;;;;;;;14.00;9.38;;;14.40;67.30;;;;;;5089956;28;20054;-69
2022/05/10 01:44:16;;;;;;;18.27;9.02;;;14.30;67.20;;;;;;5090427;28;20072;-69
2022/05/10 01:46:45;;;;;;;19.05;9.15;;;14.40;67.10;;;;;;5087614;28;20536;-69
2022/05/10 01:49:29;;;;;;;15.18;9.68;;;14.40;67.30;;;;;;5089881;28;20044;-69
2022/05/10 01:52:05;;;;;;;16.30;9.82;;;14.40;67.50;;;;;;5090370;28;20187;-69
2022/05/10 01:54:39;;;;;;;16.13;9.13;;;14.40;67.70;;;;;;5090138;28;20517;-69
2022/05/10 01:57:14;;;;;;;14.43;9.52;;;14.40;67.90;;;;;;5089742;28;20405;-69
2022/05/10 01:59:46;;;;;;;18.17;8.95;;;14.40;68.00;;;;;;5090078;28;20145;-69
2022/05/10 02:02:12;;;;;;;21.67;11.02;;;14.30;68.30;;;;;;5090080;28;20035;-69
2022/05/10 02:04:41;;;;;;;16.98;10.88;;;14.30;68.50;;;;;;5089853;28;20040;-69
2022/05/10 02:07:19;;;;;;;16.42;9.82;;;14.20;68.60;;;;;;5089848;28;20097;-69
2022/05/10 02:09:46;;;;;;;18.85;9.25;;;14.20;68.90;;;;;;5089551;28;20129;-69
2022/05/10 02:12:20;;;;;;;15.50;11.27;;;14.20;68.80;;;;;;5089704;28;20052;-69
2022/05/10 02:14:51;;;;;;;18.17;9.98;;;14.20;69.00;;;;;;5089768;28;20043;-69
2022/05/10 02:17:34;;;;;;;20.90;9.15;;;14.20;69.00;;;;;;5089585;28;20492;-69
2022/05/10 02:20:00;;;;;;;19.38;9.68;;;14.10;69.00;;;;;;5089666;28;20408;-69
2022/05/10 02:22:28;;;;;;;15.50;9.30;;;14.10;69.20;;;;;;5089609;28;20046;-69
2022/05/10 02:25:12;;;;;;;17.77;8.93;;;14.10;69.30;;;;;;5089194;28;20048;-70
2022/05/10 02:27:43;;;;;;;18.48;8.32;;;14.20;69.40;;;;;;5089469;28;20044;-69
2022/05/10 02:30:11;;;;;;;15.23;8.63;;;14.10;69.40;;;;;;5089539;28;20492;-69
2022/05/10 02:35:25;;;;;;;15.40;9.25;;;14.20;69.60;;;;;;5088827;28;20052;-69
2022/05/10 02:37:51;;;;;;;16.23;9.02;;;14.20;69.60;;;;;;5089795;28;20875;-69
2022/05/10 02:40:17;;;;;;;18.45;9.07;;;14.20;69.60;;;;;;5088787;28;20557;-69
2022/05/10 02:42:47;;;;;;;15.95;8.98;;;14.20;69.60;;;;;;5089459;28;20043;-69
2022/05/10 02:45:18;;;;;;;17.43;8.93;;;14.20;69.80;;;;;;5089342;28;20040;-69
2022/05/10 02:47:46;;;;;;;15.95;9.55;;;14.20;69.80;;;;;;5089446;28;20048;-69
2022/05/10 02:50:29;;;;;;;13.40;10.23;;;14.20;70.00;;;;;;5089326;28;20040;-69
2022/05/10 02:52:55;;;;;;;17.65;8.65;;;14.30;70.20;;;;;;5089179;28;20047;-69
2022/05/10 02:55:38;;;;;;;15.02;9.27;;;14.20;70.20;;;;;;5089047;28;20554;-69
2022/05/10 02:58:20;;;;;;;17.55;9.27;;;14.20;70.40;;;;;;5089577;28;20089;-69
2022/05/10 03:00:48;;;;;;;15.82;8.43;;;14.20;70.50;;;;;;5089370;28;20056;-69
2022/05/10 03:03:17;;;;;;;15.05;9.15;;;14.20;70.50;;;;;;5089098;28;20044;-69
2022/05/10 03:05:43;;;;;;;15.63;9.07;;;14.20;70.60;;;;;;5089314;28;20127;-69
2022/05/10 03:08:09;;;;;;;19.10;10.50;;;14.20;70.70;;;;;;5089278;28;20119;-69
2022/05/10 03:10:35;;;;;;;14.63;8.57;;;14.20;70.70;;;;;;5089039;28;20063;-69
2022/05/10 03:13:01;;;;;;;15.88;9.10;;;14.20;70.80;;;;;;5089350;28;20481;-69
2022/05/10 03:15:27;;;;;;;12.07;8.02;;;14.30;70.80;;;;;;5089244;28;20111;-69
2022/05/10 03:17:52;;;;;;;15.25;8.70;;;14.30;70.90;;;;;;5088837;28;20214;-69
2022/05/10 03:20:18;;;;;;;16.73;8.90;;;14.30;70.90;;;;;;5089049;28;20135;-69
2022/05/10 03:22:43;;;;;;;16.77;9.93;;;14.30;71.00;;;;;;5089314;28;20043;-69
2022/05/10 03:25:09;;;;;;;14.52;8.45;;;14.20;71.00;;;;;;5088972;28;20052;-68
2022/05/10 03:27:35;;;;;;;12.32;9.10;;;14.30;71.10;;;;;;5089156;28;20044;-68
2022/05/10 03:30:04;;;;;;;15.18;8.65;;;14.20;71.20;;;;;;5089237;28;20100;-70
2022/05/10 03:32:30;;;;;;;17.75;9.43;;;14.20;71.30;;;;;;5088771;28;20152;-68
2022/05/10 03:34:57;;;;;;;16.23;9.15;;;14.20;71.40;;;;;;5088807;28;20423;-69
2022/05/10 03:37:29;;;;;;;15.23;9.23;;;14.30;71.40;;;;;;5089068;28;20162;-69
2022/05/10 03:39:55;;;;;;;15.73;8.75;;;14.20;71.50;;;;;;5088601;28;20052;-70
2022/05/10 03:42:22;;;;;;;17.75;8.88;;;14.20;71.60;;;;;;5088820;28;20051;-68
2022/05/10 03:44:54;;;;;;;14.68;8.77;;;14.20;71.70;;;;;;5087788;28;20500;-69
2022/05/10 03:47:22;;;;;;;20.20;9.60;;;14.30;71.80;;;;;;5090946;28;20430;-68
2022/05/10 03:49:49;;;;;;;15.52;8.65;;;14.30;71.80;;;;;;5092573;28;20424;-69
2022/05/10 03:52:16;;;;;;;13.60;8.68;;;14.30;71.90;;;;;;5092485;28;20094;-68
2022/05/10 03:54:42;;;;;;;16.30;9.75;;;14.30;71.90;;;;;;5091994;28;20083;-68
2022/05/10 03:57:08;;;;;;;16.60;8.82;;;14.30;72.00;;;;;;5092512;28;20131;-68
2022/05/10 03:59:34;;;;;;;16.42;8.75;;;14.30;72.10;;;;;;5092221;28;20047;-68
2022/05/10 04:01:59;;;;;;;11.65;8.50;;;14.20;72.20;;;;;;5091079;28;20799;-68
2022/05/10 04:04:25;;;;;;;16.65;9.50;;;14.20;72.30;;;;;;5091787;28;20044;-68
2022/05/10 04:06:51;;;;;;;18.88;10.38;;;14.20;72.40;;;;;;5091673;28;20050;-68
2022/05/10 04:09:16;;;;;;;17.10;8.95;;;14.30;72.50;;;;;;5091735;28;20140;-69
2022/05/10 04:11:44;;;;;;;13.40;9.05;;;14.30;72.60;;;;;;5091914;28;20048;-68
2022/05/10 04:14:11;;;;;;;15.55;8.98;;;14.20;72.60;;;;;;5090758;28;20419;-68
2022/05/10 04:16:37;;;;;;;13.77;8.60;;;14.30;72.70;;;;;;5091719;28;20048;-68
2022/05/10 04:19:02;;;;;;;16.60;9.10;;;14.30;72.80;;;;;;5091719;28;20047;-68
2022/05/10 04:21:28;;;;;;;14.75;9.07;;;14.30;72.90;;;;;;5091278;28;20399;-69
2022/05/10 04:23:53;;;;;;;16.75;8.75;;;14.30;73.00;;;;;;5091709;28;20040;-69
2022/05/10 04:26:19;;;;;;;18.02;9.63;;;14.30;72.90;;;;;;5091507;28;20044;-68
2022/05/10 04:28:45;;;;;;;15.25;9.57;;;14.30;73.00;;;;;;5091677;28;20055;-68
2022/05/10 04:31:12;;;;;;;21.13;9.40;;;14.30;73.20;;;;;;5091494;28;20055;-68
2022/05/10 04:33:38;;;;;;;18.55;9.68;;;14.40;73.30;;;;;;5091137;28;20571;-68
2022/05/10 04:36:05;;;;;;;17.65;9.50;;;14.40;73.30;;;;;;5091523;28;20501;-68
2022/05/10 04:38:31;;;;;;;15.65;10.63;;;14.40;73.40;;;;;;5091218;28;20044;-68
2022/05/10 04:43:42;;;;;;;20.50;9.23;;;14.50;73.50;;;;;;5091447;28;20056;-68
2022/05/10 04:46:08;;;;;;;17.63;9.35;;;14.50;73.50;;;;;;5091134;28;20052;-68
2022/05/10 04:48:33;;;;;;;14.90;8.82;;;14.50;73.60;;;;;;5091168;28;20050;-68
2022/05/10 04:51:00;;;;;;;14.48;8.65;;;14.50;73.60;;;;;;5091154;28;20082;-68
2022/05/10 04:53:26;;;;;;;17.15;9.63;;;14.60;73.70;;;;;;5091023;28;20039;-68
2022/05/10 04:55:51;;;;;;;16.55;10.10;;;14.60;73.70;;;;;;5090540;28;20457;-68
2022/05/10 04:58:17;;;;;;;16.42;8.88;;;14.60;73.90;;;;;;5090476;28;20073;-69
2022/05/10 05:00:43;;;;;;;12.85;9.40;;;14.60;73.80;;;;;;5072787;28;20060;-70
2022/05/10 05:03:08;;;;;;;15.25;9.18;;;14.60;74.00;;;;;;5090837;28;20040;-69
2022/05/10 05:05:34;;;;;;;18.73;9.35;;;14.70;73.80;;;;;;5091083;28;20040;-69
2022/05/10 05:08:00;;;;;;;19.33;9.63;;;14.70;73.80;;;;;;5090755;28;20040;-69
2022/05/10 05:10:25;;;;;;;13.50;10.05;;;14.80;73.80;;;;;;5090600;28;20052;-69
2022/05/10 05:12:51;;;;;;;15.63;9.38;;;14.80;73.80;;;;;;5090788;28;20044;-69
2022/05/10 05:15:17;;;;;;;22.10;9.57;;;14.80;73.80;;;;;;5090538;28;20054;-69
2022/05/10 05:17:43;;;;;;;13.70;8.45;;;14.90;73.70;;;;;;5090679;28;20492;-69
2022/05/10 05:20:10;;;;;;;24.65;10.20;;;14.90;73.60;;;;;;5090703;28;20047;-69
2022/05/10 05:22:35;;;;;;;18.58;9.55;;;14.90;73.70;;;;;;5090403;28;20097;-68
2022/05/10 05:25:02;;;;;;;20.25;10.57;;;15.00;73.60;;;;;;5089276;28;20048;-69
2022/05/10 05:27:28;;;;;;;13.80;9.38;;;15.00;73.50;;;;;;5090415;28;21001;-69
2022/05/10 05:29:53;;;;;;;20.55;9.52;;;15.00;73.50;;;;;;5088925;28;20040;-69
2022/05/10 05:32:23;;;;;;;20.65;9.52;;;15.10;73.50;;;;;;5090515;28;20036;-69
2022/05/10 05:34:48;;;;;;;16.13;9.57;;;15.10;73.50;;;;;;5090324;28;20044;-69
2022/05/10 05:39:58;;;;;;;16.58;10.38;;;15.20;73.40;;;;;;5090271;28;20048;-69
2022/05/10 05:42:25;;;;;;;25.10;10.63;;;15.20;73.40;;;;;;5090188;28;20054;-69
2022/05/10 05:44:50;;;;;;;15.82;9.77;;;15.20;73.30;;;;;;5088685;28;20076;-69
2022/05/10 05:47:16;;;;;;;17.17;9.38;;;15.30;73.20;;;;;;5090029;28;20086;-69
2022/05/10 05:49:42;;;;;;;18.67;9.15;;;15.30;73.00;;;;;;5090083;28;20036;-69
2022/05/10 05:52:07;;;;;;;22.63;9.00;;;15.40;72.90;;;;;;5089710;28;20040;-69
2022/05/10 05:54:33;;;;;;;12.77;8.50;;;15.40;72.60;;;;;;5090130;28;21237;-69
2022/05/10 05:57:03;;;;;;;17.73;9.18;;;15.50;72.50;;;;;;5090265;28;20040;-69
2022/05/10 05:59:29;;;;;;;14.00;8.38;;;15.50;72.30;;;;;;5089693;28;20432;-69
2022/05/10 06:01:56;;;;;;;19.15;9.13;;;15.60;72.10;;;;;;5089655;28;20052;-69
2022/05/10 06:04:21;;;;;;;13.63;8.45;;;15.60;71.80;;;;;;5090014;28;20139;-68
2022/05/10 06:06:47;;;;;;;13.43;8.90;;;15.70;71.70;;;;;;5089786;28;20127;-68
2022/05/10 06:09:13;;;;;;;15.23;9.10;;;15.80;71.60;;;;;;5088503;28;20131;-68
2022/05/10 06:11:39;;;;;;;13.38;9.10;;;15.80;71.40;;;;;;5089472;28;20048;-68
2022/05/10 06:14:05;;;;;;;16.77;8.60;;;15.90;71.30;;;;;;5089688;28;20040;-68
2022/05/10 06:16:31;;;;;;;14.63;8.68;;;15.90;71.30;;;;;;5089713;28;20046;-68
2022/05/10 06:18:56;;;;;;;12.40;8.40;;;15.90;71.20;;;;;;5089754;28;20044;-68
2022/05/10 06:21:22;;;;;;;14.18;9.15;;;16.00;71.00;;;;;;5089534;28;20423;-68
2022/05/10 06:23:48;;;;;;;17.95;9.38;;;16.00;71.00;;;;;;5089182;28;20055;-68
2022/05/10 06:26:13;;;;;;;21.90;8.90;;;16.10;70.80;;;;;;5089302;28;20123;-68
2022/05/10 06:28:39;;;;;;;20.90;8.88;;;16.10;70.70;;;;;;5071457;28;20047;-68
2022/05/10 06:31:09;;;;;;;12.27;8.77;;;16.20;70.60;;;;;;5087938;28;20262;-68
2022/05/10 06:33:36;;;;;;;14.48;8.48;;;16.30;70.50;;;;;;5089410;28;20040;-69
2022/05/10 06:36:03;;;;;;;16.88;9.18;;;16.30;70.30;;;;;;5089385;28;20572;-69
2022/05/10 06:38:29;;;;;;;18.35;9.10;;;16.40;70.30;;;;;;5089317;28;20047;-69
2022/05/10 06:41:01;;;;;;;13.00;8.25;;;16.50;70.10;;;;;;5089165;28;20428;-69
2022/05/10 06:43:28;;;;;;;17.73;9.63;;;16.60;69.90;;;;;;5087540;28;20052;-69
2022/05/10 06:45:57;;;;;;;15.18;8.35;;;16.60;69.60;;;;;;5089200;28;20040;-69
2022/05/10 06:48:24;;;;;;;14.10;8.85;;;16.70;69.50;;;;;;5089412;28;20040;-69
2022/05/10 06:50:50;;;;;;;13.18;8.60;;;16.70;69.40;;;;;;5089278;28;20656;-69
2022/05/10 06:53:16;;;;;;;15.05;9.20;;;16.80;69.10;;;;;;5088855;28;20546;-69
2022/05/10 06:55:42;;;;;;;13.73;8.00;;;16.80;69.10;;;;;;5089279;28;20048;-69
2022/05/10 06:58:09;;;;;;;19.60;8.98;;;16.90;69.10;;;;;;5089103;28;20055;-69
2022/05/10 07:00:38;;;;;;;16.60;8.25;;;16.90;69.20;;;;;;5089121;28;20064;-69
2022/05/10 07:03:13;;;;;;;17.45;8.93;;;16.90;69.30;;;;;;5088758;28;20044;-69
2022/05/10 07:05:41;;;;;;;12.65;8.32;;;16.90;69.50;;;;;;5089290;28;20056;-70
2022/05/10 07:08:07;;;;;;;15.00;11.10;;;17.00;69.70;;;;;;5089065;28;20040;-69
2022/05/10 07:10:33;;;;;;;14.60;9.55;;;17.10;69.90;;;;;;5088840;28;20518;-69
2022/05/10 07:12:58;;;;;;;14.68;9.05;;;17.00;70.20;;;;;;5088970;28;20141;-69
2022/05/10 07:15:24;;;;;;;17.63;9.13;;;17.10;70.40;;;;;;5087812;28;20036;-69
2022/05/10 07:17:52;;;;;;;14.40;9.05;;;17.10;70.50;;;;;;5089249;28;20450;-69
2022/05/10 07:20:18;;;;;;;13.32;9.23;;;17.10;70.70;;;;;;5089344;28;20135;-69
2022/05/10 07:22:45;;;;;;;19.00;10.05;;;17.10;70.70;;;;;;5092731;28;20079;-69
2022/05/10 07:25:13;;;;;;;13.15;8.98;;;17.20;70.70;;;;;;5091708;28;20086;-69
2022/05/10 07:27:41;;;;;;;15.18;8.18;;;17.20;70.50;;;;;;5092858;28;20128;-69
2022/05/10 07:30:08;;;;;;;16.08;7.63;;;17.30;70.20;;;;;;5092853;28;20055;-69
2022/05/10 07:32:33;;;;;;;14.60;8.35;;;17.30;69.90;;;;;;5092706;28;20101;-69
2022/05/10 07:35:02;;;;;;;17.52;8.32;;;17.30;69.50;;;;;;5092609;28;20044;-69
2022/05/10 07:37:28;;;;;;;30.73;10.23;;;17.40;69.10;;;;;;5092702;28;20386;-69
2022/05/10 07:39:54;;;;;;;15.95;8.20;;;17.50;68.60;;;;;;5092606;28;20052;-69
2022/05/10 07:42:19;;;;;;;11.93;8.00;;;17.50;68.50;;;;;;5092472;28;20500;-69
2022/05/10 07:44:45;;;;;;;14.02;7.75;;;17.60;68.10;;;;;;5092612;28;20127;-69
2022/05/10 07:47:11;;;;;;;13.52;7.68;;;17.60;67.90;;;;;;5092245;28;20040;-69
2022/05/10 07:49:36;;;;;;;16.38;7.85;;;17.70;67.70;;;;;;5092651;28;20821;-69
2022/05/10 07:52:04;;;;;;;9.45;6.90;;;17.80;67.60;;;;;;5092447;28;20040;-69
2022/05/10 07:54:30;;;;;;;14.95;7.53;;;17.90;67.40;;;;;;5092357;28;20488;-69
2022/05/10 07:56:55;;;;;;;18.98;7.47;;;17.90;67.10;;;;;;5092284;28;20062;-69
2022/05/10 07:59:21;;;;;;;21.15;9.13;;;18.00;66.90;;;;;;5092251;28;20043;-69
2022/05/10 08:01:46;;;;;;;12.02;7.72;;;18.10;66.30;;;;;;5091908;28;20047;-69
2022/05/10 08:04:12;;;;;;;15.93;6.10;;;18.20;65.80;;;;;;5091037;28;20401;-69
2022/05/10 08:06:38;;;;;;;14.65;7.20;;;18.30;65.50;;;;;;5092104;28;20127;-69
2022/05/10 08:09:03;;;;;;;23.83;8.35;;;18.40;65.20;;;;;;5091869;28;20047;-69
2022/05/10 08:11:29;;;;;;;20.88;8.90;;;18.50;64.70;;;;;;5091944;28;20052;-69
2022/05/10 08:13:54;;;;;;;11.73;6.85;;;18.60;64.30;;;;;;5091766;28;20039;-68
2022/05/10 08:16:20;;;;;;;15.68;7.63;;;18.70;63.40;;;;;;5091781;28;20408;-69
2022/05/10 08:18:48;;;;;;;11.38;6.22;;;18.80;63.20;;;;;;5091831;28;20680;-68
2022/05/10 08:21:14;;;;;;;10.00;6.10;;;18.80;62.90;;;;;;5091674;28;20457;-68
2022/05/10 08:23:40;;;;;;;13.95;6.82;;;19.00;62.60;;;;;;5091797;28;20159;-69
2022/05/10 08:26:08;;;;;;;11.10;6.45;;;19.00;62.30;;;;;;5091648;28;20127;-68
2022/05/10 08:28:35;;;;;;;14.13;6.53;;;19.10;62.00;;;;;;5091173;28;20404;-68
2022/05/10 08:31:03;;;;;;;19.17;6.60;;;19.10;61.60;;;;;;5091586;28;20055;-69
2022/05/10 08:33:32;;;;;;;14.40;7.68;;;19.20;61.40;;;;;;5090743;28;20071;-69
2022/05/10 08:35:59;;;;;;;14.25;6.05;;;19.30;61.40;;;;;;5091500;28;20036;-69
2022/05/10 08:38:26;;;;;;;13.40;6.45;;;19.40;61.30;;;;;;5091324;28;20361;-69
2022/05/10 08:41:29;;;;;;;14.95;6.80;;;19.50;61.30;;;;;;5091189;28;20052;-69
2022/05/10 08:43:59;;;;;;;11.07;5.18;;;19.60;61.10;;;;;;5091205;28;20044;-69
2022/05/10 08:46:32;;;;;;;8.70;5.13;;;19.70;61.30;;;;;;5091287;28;20559;-69
2022/05/10 08:49:11;;;;;;;18.85;6.50;;;19.80;60.90;;;;;;5073383;28;20100;-69
2022/05/10 08:51:37;;;;;;;8.80;4.65;;;19.90;59.60;;;;;;5090804;28;20052;-69
2022/05/10 08:54:03;;;;;;;10.98;5.90;;;20.00;59.70;;;;;;5091235;28;20043;-69
2022/05/10 08:56:35;;;;;;;14.65;5.43;;;20.10;59.10;;;;;;5089898;28;20407;-69
2022/05/10 08:59:13;;;;;;;12.70;5.88;;;20.10;58.40;;;;;;5090449;28;20048;-69
2022/05/10 09:01:53;;;;;;;14.07;4.57;;;20.30;57.50;;;;;;5091155;28;20412;-69
2022/05/10 09:04:43;;;;;;;8.40;4.38;;;20.40;57.30;;;;;;5090871;28;20044;-69
2022/05/10 09:07:24;;;;;;;12.27;5.20;;;20.40;57.30;;;;;;5090886;28;20544;-69
2022/05/10 09:09:54;;;;;;;7.28;4.07;;;20.50;57.30;;;;;;5090307;28;20067;-69
2022/05/10 09:12:24;;;;;;;7.22;3.88;;;20.50;56.90;;;;;;5090758;28;20059;-69
2022/05/10 09:14:59;;;;;;;11.82;3.65;;;20.60;56.00;;;;;;5090784;28;20415;-69
2022/05/10 09:17:29;;;;;;;12.18;4.30;;;20.70;56.20;;;;;;5090745;28;20050;-69
2022/05/10 09:19:55;;;;;;;9.80;5.55;;;20.80;55.90;;;;;;5090450;28;20048;-70
2022/05/10 09:23:00;;;;;;;12.88;5.13;;;20.80;55.50;;;;;;5090704;28;20052;-69
2022/05/10 09:25:34;;;;;;;10.30;4.90;;;20.90;54.80;;;;;;5090394;28;20044;-69
2022/05/10 09:28:12;;;;;;;14.13;5.55;;;20.90;55.00;;;;;;5090528;28;20044;-70
2022/05/10 09:30:38;;;;;;;11.43;5.57;;;20.90;55.10;;;;;;5090740;28;20044;-69
2022/05/10 09:36:10;;;;;;;15.25;7.13;;;20.90;55.60;;;;;;5090387;28;20044;-70
2022/05/10 09:38:47;;;;;;;11.63;5.68;;;20.80;56.30;;;;;;5090387;28;20109;-69
2022/05/10 09:41:26;;;;;;;13.88;6.40;;;20.90;56.30;;;;;;5090137;28;20040;-69
2022/05/10 09:43:53;;;;;;;12.88;7.40;;;21.00;56.20;;;;;;5089788;28;20558;-70
2022/05/10 09:46:24;;;;;;;13.57;7.03;;;20.90;56.60;;;;;;5090088;28;20501;-69
2022/05/10 09:48:50;;;;;;;9.43;5.95;;;21.00;56.80;;;;;;5090320;28;20055;-69
2022/05/10 09:51:31;;;;;;;16.63;6.72;;;21.00;56.90;;;;;;5090249;28;20075;-69
2022/05/10 09:53:57;;;;;;;12.63;6.85;;;21.00;57.00;;;;;;5089979;28;20044;-70
2022/05/10 09:56:39;;;;;;;14.07;7.40;;;21.00;57.40;;;;;;5088588;28;20051;-70
2022/05/10 09:59:24;;;;;;;12.75;7.00;;;21.00;57.50;;;;;;5088680;28;20040;-69
2022/05/10 10:01:56;;;;;;;17.02;7.30;;;21.00;57.60;;;;;;5089543;28;20052;-70
2022/05/10 10:04:40;;;;;;;11.98;6.75;;;21.00;57.70;;;;;;5088692;28;20854;-69
2022/05/10 10:07:25;;;;;;;13.98;7.45;;;21.00;57.90;;;;;;5089993;28;20046;-70
2022/05/10 10:10:15;;;;;;;17.88;7.53;;;21.00;57.80;;;;;;5089858;28;20462;-70
2022/05/10 10:12:45;;;;;;;21.55;8.23;;;20.90;58.00;;;;;;5089767;28;20087;-69
2022/05/10 10:15:37;;;;;;;18.17;8.57;;;20.90;58.50;;;;;;5089217;28;20065;-69
2022/05/10 10:18:08;;;;;;;15.23;7.13;;;21.00;58.50;;;;;;5089709;28;20058;-69
2022/05/10 10:20:54;;;;;;;17.27;10.45;;;20.90;58.40;;;;;;5089548;28;20048;-69
2022/05/10 10:23:28;;;;;;;12.35;7.85;;;20.90;58.50;;;;;;5089176;28;20047;-69
2022/05/10 10:26:26;;;;;;;18.83;8.45;;;20.90;59.10;;;;;;5089463;28;20488;-69
2022/05/10 10:28:57;;;;;;;14.65;8.20;;;20.80;59.50;;;;;;5089131;28;20056;-69
2022/05/10 10:31:27;;;;;;;14.93;8.68;;;20.80;59.80;;;;;;5089555;28;20052;-68
2022/05/10 10:34:24;;;;;;;15.30;7.70;;;20.80;59.70;;;;;;5089369;28;20473;-68
2022/05/10 10:36:59;;;;;;;13.70;9.05;;;20.80;60.10;;;;;;5087980;28;20298;-68
2022/05/10 10:39:49;;;;;;;14.07;8.63;;;20.70;60.20;;;;;;5089405;28;20136;-68
2022/05/10 10:42:35;;;;;;;13.15;6.88;;;20.70;60.30;;;;;;5088084;28;20079;-68
2022/05/10 10:45:07;;;;;;;13.85;7.05;;;20.60;60.40;;;;;;5089489;28;20126;-67
2022/05/10 10:47:53;;;;;;;;;;;20.60;60.20;;;;;;5088356;28;20446;-69
2022/05/10 10:50:21;;;;;;;15.93;7.68;;;20.60;60.60;;;;;;5089038;28;19920;-68
2022/05/10 10:52:47;;;;;;;13.95;6.63;;;20.60;60.10;;;;;;5089323;28;20044;-68
2022/05/10 10:55:18;;;;;;;14.48;5.65;;;20.60;59.90;;;;;;5089693;28;20101;-68
2022/05/10 10:57:52;;;;;;;12.73;5.40;;;20.60;59.90;;;;;;5092915;28;20457;-69
2022/05/10 11:00:20;;;;;;;13.32;5.65;;;20.60;59.30;;;;;;5093151;28;20317;-68
2022/05/10 11:02:57;;;;;;;10.15;4.53;;;20.50;58.80;;;;;;5093333;28;20396;-68
2022/05/10 11:06:00;;;;;;;12.52;5.38;;;20.60;59.30;;;;;;5093373;28;20079;-68
2022/05/10 11:08:46;;;;;;;22.73;5.10;;;20.60;59.40;;;;;;5093647;28;20513;-68
2022/05/10 11:11:49;;;;;;;10.88;4.60;;;20.50;59.40;;;;;;5092726;28;20135;-68
2022/05/10 11:14:43;;;;;;;10.93;4.95;;;20.60;59.20;;;;;;5093150;28;20044;-68
2022/05/10 11:17:30;;;;;;;17.90;4.75;;;20.50;57.60;;;;;;5093156;28;20052;-68
2022/05/10 11:20:32;;;;;;;10.80;4.82;;;20.60;58.40;;;;;;5093133;28;20134;-69
2022/05/10 11:23:06;;;;;;;7.55;4.70;;;20.70;58.20;;;;;;5092518;28;20087;-68
2022/05/10 11:25:58;;;;;;;9.63;4.75;;;20.70;57.80;;;;;;5093018;28;20428;-68
2022/05/10 11:29:00;;;;;;;9.02;4.05;;;20.80;58.00;;;;;;5091611;28;20050;-68
2022/05/10 11:31:34;;;;;;;8.13;3.45;;;20.90;56.10;;;;;;5092773;28;20424;-68
2022/05/10 11:34:51;;;;;;;16.52;3.72;;;20.90;55.70;;;;;;5092688;28;20485;-68
2022/05/10 11:37:26;;;;;;;12.02;3.85;;;20.90;54.20;;;;;;5060615;28;20500;-69
2022/05/10 11:40:17;;;;;;;11.63;3.35;;;20.90;54.00;;;;;;5092760;28;20080;-68
2022/05/10 11:43:07;;;;;;;7.80;3.13;;;20.90;53.40;;;;;;5092696;28;20047;-68
2022/05/10 11:45:53;;;;;;;7.82;3.47;;;20.80;53.30;;;;;;5092629;28;20044;-68
2022/05/10 11:48:54;;;;;;;9.30;3.40;;;20.80;54.20;;;;;;5092114;28;20052;-68
2022/05/10 11:51:44;;;;;;;6.90;3.30;;;20.80;54.40;;;;;;5092383;28;20412;-68
2022/05/10 11:54:26;;;;;;;7.32;2.83;;;20.70;53.40;;;;;;5092496;28;20510;-68
2022/05/10 11:56:54;;;;;;;6.70;2.42;;;20.80;53.30;;;;;;5090707;28;20048;-68
2022/05/10 11:59:27;;;;;;;5.18;2.55;;;20.80;52.60;;;;;;5092166;28;20048;-68
2022/05/10 12:01:55;;;;;;;6.45;2.55;;;20.80;53.30;;;;;;5092282;28;20131;-68
2022/05/10 12:04:37;;;;;;;9.90;2.50;;;20.90;52.00;;;;;;5092005;28;20040;-69
2022/05/10 12:07:29;;;;;;;11.68;2.88;;;21.00;50.70;;;;;;5090692;28;20496;-69
2022/05/10 12:10:26;;;;;;;13.05;2.00;;;21.10;48.20;;;;;;5091726;28;20056;-68
2022/05/10 12:12:57;;;;;;;8.82;1.95;;;21.10;48.60;;;;;;5087769;28;20056;-68
2022/05/10 12:21:50;;;;;;;6.07;1.00;;;21.00;44.80;;;;;;5068180;28;20135;-68
2022/05/10 12:24:19;;;;;;;11.20;1.58;;;20.90;43.60;;;;;;5091303;28;20083;-68
2022/05/10 12:27:17;;;;;;;8.88;1.20;;;20.60;42.60;;;;;;5091660;28;20378;-68
2022/05/10 12:29:42;;;;;;;4.00;1.10;;;20.60;43.10;;;;;;5091353;28;20044;-68
2022/05/10 12:32:27;;;;;;;8.77;1.10;;;20.40;43.40;;;;;;5091415;28;20047;-69
2022/05/10 12:35:04;;;;;;;5.80;0.98;;;20.40;42.20;;;;;;5091509;28;20056;-68
2022/05/10 12:37:32;;;;;;;4.10;1.63;;;20.30;41.80;;;;;;5091512;28;20093;-68
2022/05/10 12:40:10;;;;;;;2.40;0.80;;;20.20;41.80;;;;;;5091423;28;20059;-69
2022/05/10 12:43:14;;;;;;;4.78;1.17;;;20.20;42.30;;;;;;5091370;28;20052;-69
2022/05/10 12:46:15;;;;;;;4.72;1.33;;;20.10;43.00;;;;;;5091271;28;20048;-68
2022/05/10 12:48:55;;;;;;;6.70;0.80;;;20.00;43.50;;;;;;5091153;28;20044;-69
2022/05/10 12:51:42;;;;;;;3.67;0.90;;;19.90;44.40;;;;;;5091013;28;20339;-69
2022/05/10 12:54:17;;;;;;;6.68;1.15;;;19.80;44.60;;;;;;5090659;28;20510;-69
2022/05/10 12:56:43;;;;;;;4.13;1.27;;;19.70;44.40;;;;;;5090995;28;20829;-68
2022/05/10 12:59:17;;;;;;;10.77;1.63;;;19.60;45.30;;;;;;5091074;28;20131;-69
2022/05/10 13:01:43;;;;;;;9.98;2.28;;;19.60;45.80;;;;;;5091037;28;20497;-68
2022/05/10 13:04:20;;;;;;;8.25;1.80;;;19.50;46.80;;;;;;5091099;28;20089;-68
2022/05/10 13:07:19;;;;;;;6.90;1.98;;;19.50;47.00;;;;;;5090698;28;20404;-68
2022/05/10 13:10:20;;;;;;;5.85;2.10;;;19.40;48.10;;;;;;5090888;28;20044;-69
2022/05/10 13:12:53;;;;;;;6.35;1.70;;;19.30;49.10;;;;;;5078932;28;20048;-68
2022/05/10 13:15:21;;;;;;;4.72;1.98;;;19.20;50.80;;;;;;5090927;28;20507;-68
2022/05/10 13:17:49;;;;;;;4.78;1.73;;;19.20;51.20;;;;;;5090379;28;20113;-69
2022/05/10 13:20:21;;;;;;;6.40;1.90;;;19.20;51.20;;;;;;5090517;28;20044;-68
2022/05/10 13:22:48;;;;;;;;;;;19.20;51.10;;;;;;5091255;28;20047;-69
2022/05/10 13:25:14;;;;;;;7.07;2.15;;;19.00;51.40;;;;;;5090600;28;19920;-70